sensor_id;sensor_type;location;lat;lon;timestamp;P1;durP1;ratioP1;P2;durP2;ratioP2
9815;SDS011;4947;44.526;11.360;2022-09-09T00:01:15;6.07;;;3.45;;
9815;SDS011;4947;44.526;11.360;2022-09-09T00:03:54;8.63;;;2.95;;
9815;SDS011;4947;44.526;11.360;2022-09-09T00:06:26;8.23;;;3.20;;
9815;SDS011;4947;44.526;11.360;2022-09-09T00:09:00;16.40;;;3.90;;
9815;SDS011;4947;44.526;11.360;2022-09-09T00:11:33;24.73;;;4.25;;
9815;SDS011;4947;44.526;11.360;2022-09-09T00:14:10;18.70;;;3.92;;
9815;SDS011;4947;44.526;11.360;2022-09-09T00:16:46;12.00;;;3.40;;
9815;SDS011;4947;44.526;11.360;2022-09-09T00:19:22;5.25;;;3.22;;
9815;SDS011;4947;44.526;11.360;2022-09-09T00:21:57;5.35;;;3.17;;
9815;SDS011;4947;44.526;11.360;2022-09-09T00:24:37;7.88;;;3.60;;
9815;SDS011;4947;44.526;11.360;2022-09-09T00:27:16;11.70;;;3.47;;
9815;SDS011;4947;44.526;11.360;2022-09-09T00:29:53;9.75;;;3.88;;
9815;SDS011;4947;44.526;11.360;2022-09-09T00:32:24;6.22;;;4.00;;
9815;SDS011;4947;44.526;11.360;2022-09-09T00:34:57;6.53;;;3.65;;
9815;SDS011;4947;44.526;11.360;2022-09-09T00:37:30;8.60;;;3.55;;
9815;SDS011;4947;44.526;11.360;2022-09-09T00:40:07;9.20;;;4.53;;
9815;SDS011;4947;44.526;11.360;2022-09-09T00:42:45;5.97;;;3.45;;
9815;SDS011;4947;44.526;11.360;2022-09-09T00:45:19;5.18;;;3.38;;
9815;SDS011;4947;44.526;11.360;2022-09-09T00:48:00;9.48;;;3.67;;
9815;SDS011;4947;44.526;11.360;2022-09-09T00:50:35;7.85;;;4.13;;
9815;SDS011;4947;44.526;11.360;2022-09-09T00:53:19;10.38;;;3.90;;
9815;SDS011;4947;44.526;11.360;2022-09-09T00:55:59;13.23;;;3.88;;
9815;SDS011;4947;44.526;11.360;2022-09-09T00:58:34;13.15;;;4.25;;
9815;SDS011;4947;44.526;11.360;2022-09-09T01:01:04;15.55;;;4.43;;
9815;SDS011;4947;44.526;11.360;2022-09-09T01:03:35;9.52;;;4.20;;
9815;SDS011;4947;44.526;11.360;2022-09-09T01:06:12;8.38;;;4.93;;
9815;SDS011;4947;44.526;11.360;2022-09-09T01:09:02;10.43;;;4.22;;
9815;SDS011;4947;44.526;11.360;2022-09-09T01:11:41;7.93;;;4.47;;
9815;SDS011;4947;44.526;11.360;2022-09-09T01:14:19;7.45;;;4.68;;
9815;SDS011;4947;44.526;11.360;2022-09-09T01:16:56;7.20;;;4.32;;
9815;SDS011;4947;44.526;11.360;2022-09-09T01:19:32;8.93;;;3.78;;
9815;SDS011;4947;44.526;11.360;2022-09-09T01:22:08;10.90;;;3.50;;
9815;SDS011;4947;44.526;11.360;2022-09-09T01:24:48;12.48;;;4.75;;
9815;SDS011;4947;44.526;11.360;2022-09-09T01:27:34;20.35;;;5.30;;
9815;SDS011;4947;44.526;11.360;2022-09-09T01:30:05;21.48;;;6.85;;
9815;SDS011;4947;44.526;11.360;2022-09-09T01:32:41;18.15;;;6.82;;
9815;SDS011;4947;44.526;11.360;2022-09-09T01:35:11;15.48;;;7.40;;
9815;SDS011;4947;44.526;11.360;2022-09-09T01:37:47;17.50;;;6.82;;
9815;SDS011;4947;44.526;11.360;2022-09-09T01:40:14;14.88;;;7.10;;
9815;SDS011;4947;44.526;11.360;2022-09-09T01:42:44;11.68;;;6.22;;
9815;SDS011;4947;44.526;11.360;2022-09-09T01:45:12;9.57;;;6.40;;
9815;SDS011;4947;44.526;11.360;2022-09-09T01:47:40;9.82;;;6.07;;
9815;SDS011;4947;44.526;11.360;2022-09-09T01:50:08;11.05;;;5.43;;
9815;SDS011;4947;44.526;11.360;2022-09-09T01:52:40;8.25;;;5.85;;
9815;SDS011;4947;44.526;11.360;2022-09-09T01:55:10;12.07;;;6.45;;
9815;SDS011;4947;44.526;11.360;2022-09-09T01:57:39;10.82;;;5.63;;
9815;SDS011;4947;44.526;11.360;2022-09-09T02:00:17;13.27;;;6.25;;
9815;SDS011;4947;44.526;11.360;2022-09-09T02:02:48;10.43;;;5.97;;
9815;SDS011;4947;44.526;11.360;2022-09-09T02:05:25;14.85;;;6.13;;
9815;SDS011;4947;44.526;11.360;2022-09-09T02:08:03;11.90;;;6.30;;
9815;SDS011;4947;44.526;11.360;2022-09-09T02:10:36;14.48;;;6.05;;
9815;SDS011;4947;44.526;11.360;2022-09-09T02:13:11;10.55;;;6.25;;
9815;SDS011;4947;44.526;11.360;2022-09-09T02:15:42;7.15;;;6.07;;
9815;SDS011;4947;44.526;11.360;2022-09-09T02:18:15;12.30;;;5.85;;
9815;SDS011;4947;44.526;11.360;2022-09-09T02:20:46;13.32;;;6.38;;
9815;SDS011;4947;44.526;11.360;2022-09-09T02:23:14;10.13;;;7.15;;
9815;SDS011;4947;44.526;11.360;2022-09-09T02:25:42;12.05;;;6.88;;
9815;SDS011;4947;44.526;11.360;2022-09-09T02:28:12;10.95;;;6.32;;
9815;SDS011;4947;44.526;11.360;2022-09-09T02:30:42;12.32;;;6.63;;
9815;SDS011;4947;44.526;11.360;2022-09-09T02:33:13;11.70;;;7.00;;
9815;SDS011;4947;44.526;11.360;2022-09-09T02:35:41;13.27;;;6.28;;
9815;SDS011;4947;44.526;11.360;2022-09-09T02:38:12;13.48;;;7.63;;
9815;SDS011;4947;44.526;11.360;2022-09-09T02:40:42;11.68;;;6.85;;
9815;SDS011;4947;44.526;11.360;2022-09-09T02:43:09;11.80;;;6.40;;
9815;SDS011;4947;44.526;11.360;2022-09-09T02:45:40;12.45;;;6.70;;
9815;SDS011;4947;44.526;11.360;2022-09-09T02:48:20;12.27;;;6.82;;
9815;SDS011;4947;44.526;11.360;2022-09-09T02:50:57;10.90;;;6.45;;
9815;SDS011;4947;44.526;11.360;2022-09-09T02:53:31;13.68;;;6.85;;
9815;SDS011;4947;44.526;11.360;2022-09-09T02:56:08;9.50;;;6.75;;
9815;SDS011;4947;44.526;11.360;2022-09-09T02:58:40;12.55;;;6.30;;
9815;SDS011;4947;44.526;11.360;2022-09-09T03:01:10;12.68;;;6.57;;
9815;SDS011;4947;44.526;11.360;2022-09-09T03:03:37;13.77;;;7.13;;
9815;SDS011;4947;44.526;11.360;2022-09-09T03:06:06;14.18;;;6.47;;
9815;SDS011;4947;44.526;11.360;2022-09-09T03:08:34;10.88;;;6.20;;
9815;SDS011;4947;44.526;11.360;2022-09-09T03:11:02;16.08;;;6.90;;
9815;SDS011;4947;44.526;11.360;2022-09-09T03:13:30;11.40;;;7.10;;
9815;SDS011;4947;44.526;11.360;2022-09-09T03:15:57;11.85;;;7.28;;
9815;SDS011;4947;44.526;11.360;2022-09-09T03:18:27;12.55;;;7.22;;
9815;SDS011;4947;44.526;11.360;2022-09-09T03:20:55;14.68;;;7.75;;
9815;SDS011;4947;44.526;11.360;2022-09-09T03:23:23;27.85;;;7.80;;
9815;SDS011;4947;44.526;11.360;2022-09-09T03:25:51;17.38;;;7.10;;
9815;SDS011;4947;44.526;11.360;2022-09-09T03:28:21;7.97;;;6.15;;
9815;SDS011;4947;44.526;11.360;2022-09-09T03:30:57;10.27;;;7.13;;
9815;SDS011;4947;44.526;11.360;2022-09-09T03:33:27;14.70;;;6.57;;
9815;SDS011;4947;44.526;11.360;2022-09-09T03:35:55;7.28;;;5.78;;
9815;SDS011;4947;44.526;11.360;2022-09-09T03:38:23;15.10;;;6.57;;
9815;SDS011;4947;44.526;11.360;2022-09-09T03:40:52;10.05;;;6.10;;
9815;SDS011;4947;44.526;11.360;2022-09-09T03:43:22;13.30;;;7.03;;
9815;SDS011;4947;44.526;11.360;2022-09-09T03:45:50;9.27;;;6.50;;
9815;SDS011;4947;44.526;11.360;2022-09-09T03:48:18;11.70;;;6.85;;
9815;SDS011;4947;44.526;11.360;2022-09-09T03:50:49;11.70;;;6.72;;
9815;SDS011;4947;44.526;11.360;2022-09-09T03:53:18;11.18;;;6.55;;
9815;SDS011;4947;44.526;11.360;2022-09-09T03:55:48;12.25;;;6.97;;
9815;SDS011;4947;44.526;11.360;2022-09-09T03:58:18;13.00;;;6.53;;
9815;SDS011;4947;44.526;11.360;2022-09-09T04:00:52;12.75;;;6.72;;
9815;SDS011;4947;44.526;11.360;2022-09-09T04:03:20;12.10;;;7.03;;
9815;SDS011;4947;44.526;11.360;2022-09-09T04:05:51;9.95;;;6.60;;
9815;SDS011;4947;44.526;11.360;2022-09-09T04:08:19;13.02;;;6.20;;
9815;SDS011;4947;44.526;11.360;2022-09-09T04:10:47;14.75;;;7.13;;
9815;SDS011;4947;44.526;11.360;2022-09-09T04:13:17;11.13;;;5.35;;
9815;SDS011;4947;44.526;11.360;2022-09-09T04:15:50;17.38;;;6.93;;
9815;SDS011;4947;44.526;11.360;2022-09-09T04:18:18;11.02;;;6.25;;
9815;SDS011;4947;44.526;11.360;2022-09-09T04:20:47;13.65;;;6.30;;
9815;SDS011;4947;44.526;11.360;2022-09-09T04:23:17;9.48;;;5.88;;
9815;SDS011;4947;44.526;11.360;2022-09-09T04:25:45;17.33;;;6.68;;
9815;SDS011;4947;44.526;11.360;2022-09-09T04:28:13;15.52;;;6.43;;
9815;SDS011;4947;44.526;11.360;2022-09-09T04:30:41;12.15;;;6.63;;
9815;SDS011;4947;44.526;11.360;2022-09-09T04:33:10;11.93;;;6.28;;
9815;SDS011;4947;44.526;11.360;2022-09-09T04:35:38;11.13;;;5.15;;
9815;SDS011;4947;44.526;11.360;2022-09-09T04:38:10;9.60;;;5.85;;
9815;SDS011;4947;44.526;11.360;2022-09-09T04:40:39;13.65;;;5.88;;
9815;SDS011;4947;44.526;11.360;2022-09-09T04:43:09;14.93;;;6.40;;
9815;SDS011;4947;44.526;11.360;2022-09-09T04:45:37;8.95;;;5.60;;
9815;SDS011;4947;44.526;11.360;2022-09-09T04:48:05;9.63;;;6.22;;
9815;SDS011;4947;44.526;11.360;2022-09-09T04:50:33;9.98;;;5.95;;
9815;SDS011;4947;44.526;11.360;2022-09-09T04:53:00;11.90;;;6.43;;
9815;SDS011;4947;44.526;11.360;2022-09-09T04:55:28;11.13;;;6.75;;
9815;SDS011;4947;44.526;11.360;2022-09-09T04:57:57;15.85;;;6.20;;
9815;SDS011;4947;44.526;11.360;2022-09-09T05:00:25;14.13;;;6.07;;
9815;SDS011;4947;44.526;11.360;2022-09-09T05:02:53;11.63;;;6.20;;
9815;SDS011;4947;44.526;11.360;2022-09-09T05:05:21;11.27;;;5.28;;
9815;SDS011;4947;44.526;11.360;2022-09-09T05:07:49;10.55;;;6.57;;
9815;SDS011;4947;44.526;11.360;2022-09-09T05:10:16;14.88;;;6.63;;
9815;SDS011;4947;44.526;11.360;2022-09-09T05:12:51;10.85;;;5.47;;
9815;SDS011;4947;44.526;11.360;2022-09-09T05:15:21;15.85;;;6.40;;
9815;SDS011;4947;44.526;11.360;2022-09-09T05:17:48;11.43;;;6.25;;
9815;SDS011;4947;44.526;11.360;2022-09-09T05:20:17;13.07;;;6.07;;
9815;SDS011;4947;44.526;11.360;2022-09-09T05:22:45;10.18;;;6.35;;
9815;SDS011;4947;44.526;11.360;2022-09-09T05:25:12;11.35;;;5.93;;
9815;SDS011;4947;44.526;11.360;2022-09-09T05:27:40;13.57;;;6.28;;
9815;SDS011;4947;44.526;11.360;2022-09-09T05:30:09;10.82;;;5.93;;
9815;SDS011;4947;44.526;11.360;2022-09-09T05:32:39;9.35;;;5.88;;
9815;SDS011;4947;44.526;11.360;2022-09-09T05:35:07;10.48;;;5.72;;
9815;SDS011;4947;44.526;11.360;2022-09-09T05:37:35;10.43;;;6.35;;
9815;SDS011;4947;44.526;11.360;2022-09-09T05:40:03;13.73;;;5.57;;
9815;SDS011;4947;44.526;11.360;2022-09-09T05:42:31;13.77;;;6.03;;
9815;SDS011;4947;44.526;11.360;2022-09-09T05:44:59;13.90;;;6.82;;
9815;SDS011;4947;44.526;11.360;2022-09-09T05:47:26;13.57;;;6.57;;
9815;SDS011;4947;44.526;11.360;2022-09-09T05:49:55;13.32;;;6.30;;
9815;SDS011;4947;44.526;11.360;2022-09-09T05:52:23;10.82;;;5.70;;
9815;SDS011;4947;44.526;11.360;2022-09-09T05:54:50;18.95;;;6.40;;
9815;SDS011;4947;44.526;11.360;2022-09-09T05:57:19;13.82;;;6.57;;
9815;SDS011;4947;44.526;11.360;2022-09-09T05:59:47;13.75;;;7.30;;
9815;SDS011;4947;44.526;11.360;2022-09-09T06:02:14;11.77;;;6.63;;
9815;SDS011;4947;44.526;11.360;2022-09-09T06:04:42;8.07;;;5.88;;
9815;SDS011;4947;44.526;11.360;2022-09-09T06:07:11;7.85;;;5.78;;
9815;SDS011;4947;44.526;11.360;2022-09-09T06:09:39;11.10;;;6.20;;
9815;SDS011;4947;44.526;11.360;2022-09-09T06:12:07;9.45;;;5.82;;
9815;SDS011;4947;44.526;11.360;2022-09-09T06:14:34;8.23;;;5.75;;
9815;SDS011;4947;44.526;11.360;2022-09-09T06:17:02;10.27;;;6.03;;
9815;SDS011;4947;44.526;11.360;2022-09-09T06:19:30;11.07;;;5.45;;
9815;SDS011;4947;44.526;11.360;2022-09-09T06:21:57;16.73;;;6.18;;
9815;SDS011;4947;44.526;11.360;2022-09-09T06:24:27;9.05;;;5.13;;
9815;SDS011;4947;44.526;11.360;2022-09-09T06:26:55;6.70;;;4.95;;
9815;SDS011;4947;44.526;11.360;2022-09-09T06:29:23;10.50;;;5.03;;
9815;SDS011;4947;44.526;11.360;2022-09-09T06:31:50;11.13;;;5.93;;
9815;SDS011;4947;44.526;11.360;2022-09-09T06:34:17;14.40;;;4.55;;
9815;SDS011;4947;44.526;11.360;2022-09-09T06:36:45;8.48;;;5.18;;
9815;SDS011;4947;44.526;11.360;2022-09-09T06:39:12;10.50;;;5.80;;
9815;SDS011;4947;44.526;11.360;2022-09-09T06:41:42;9.25;;;6.10;;
9815;SDS011;4947;44.526;11.360;2022-09-09T06:44:09;12.15;;;5.85;;
9815;SDS011;4947;44.526;11.360;2022-09-09T06:46:38;18.10;;;6.68;;
9815;SDS011;4947;44.526;11.360;2022-09-09T06:49:05;17.00;;;6.10;;
9815;SDS011;4947;44.526;11.360;2022-09-09T06:51:34;8.27;;;5.43;;
9815;SDS011;4947;44.526;11.360;2022-09-09T06:54:07;10.93;;;6.40;;
9815;SDS011;4947;44.526;11.360;2022-09-09T06:56:36;10.13;;;5.47;;
9815;SDS011;4947;44.526;11.360;2022-09-09T06:59:07;14.00;;;5.18;;
9815;SDS011;4947;44.526;11.360;2022-09-09T07:01:36;13.05;;;6.07;;
9815;SDS011;4947;44.526;11.360;2022-09-09T07:04:05;11.35;;;5.15;;
9815;SDS011;4947;44.526;11.360;2022-09-09T07:06:34;9.68;;;5.50;;
9815;SDS011;4947;44.526;11.360;2022-09-09T07:09:04;10.27;;;5.18;;
9815;SDS011;4947;44.526;11.360;2022-09-09T07:11:37;14.77;;;5.63;;
9815;SDS011;4947;44.526;11.360;2022-09-09T07:14:07;12.38;;;4.60;;
9815;SDS011;4947;44.526;11.360;2022-09-09T07:16:37;10.13;;;5.25;;
9815;SDS011;4947;44.526;11.360;2022-09-09T07:19:05;8.82;;;4.90;;
9815;SDS011;4947;44.526;11.360;2022-09-09T07:21:35;8.63;;;4.68;;
9815;SDS011;4947;44.526;11.360;2022-09-09T07:24:03;11.40;;;4.53;;
9815;SDS011;4947;44.526;11.360;2022-09-09T07:26:32;7.22;;;4.70;;
9815;SDS011;4947;44.526;11.360;2022-09-09T07:29:01;12.13;;;4.30;;
9815;SDS011;4947;44.526;11.360;2022-09-09T07:31:30;11.25;;;3.97;;
9815;SDS011;4947;44.526;11.360;2022-09-09T07:33:59;11.98;;;4.40;;
9815;SDS011;4947;44.526;11.360;2022-09-09T07:36:28;13.57;;;4.30;;
9815;SDS011;4947;44.526;11.360;2022-09-09T07:38:58;9.95;;;4.18;;
9815;SDS011;4947;44.526;11.360;2022-09-09T07:41:32;8.57;;;4.35;;
9815;SDS011;4947;44.526;11.360;2022-09-09T07:44:03;9.35;;;3.53;;
9815;SDS011;4947;44.526;11.360;2022-09-09T07:46:33;7.20;;;3.78;;
9815;SDS011;4947;44.526;11.360;2022-09-09T07:49:04;8.93;;;3.47;;
9815;SDS011;4947;44.526;11.360;2022-09-09T07:51:33;10.88;;;3.67;;
9815;SDS011;4947;44.526;11.360;2022-09-09T07:54:02;10.02;;;3.88;;
9815;SDS011;4947;44.526;11.360;2022-09-09T07:56:32;9.98;;;3.70;;
9815;SDS011;4947;44.526;11.360;2022-09-09T07:59:00;8.10;;;3.63;;
9815;SDS011;4947;44.526;11.360;2022-09-09T08:01:29;7.13;;;3.10;;
9815;SDS011;4947;44.526;11.360;2022-09-09T08:04:00;10.60;;;3.90;;
9815;SDS011;4947;44.526;11.360;2022-09-09T08:06:30;8.45;;;3.28;;
9815;SDS011;4947;44.526;11.360;2022-09-09T08:09:00;11.32;;;2.67;;
9815;SDS011;4947;44.526;11.360;2022-09-09T08:11:28;11.23;;;3.78;;
9815;SDS011;4947;44.526;11.360;2022-09-09T08:13:58;12.93;;;2.88;;
9815;SDS011;4947;44.526;11.360;2022-09-09T08:16:26;7.28;;;1.90;;
9815;SDS011;4947;44.526;11.360;2022-09-09T08:18:55;8.60;;;2.50;;
9815;SDS011;4947;44.526;11.360;2022-09-09T08:21:25;8.77;;;2.58;;
9815;SDS011;4947;44.526;11.360;2022-09-09T08:23:55;7.38;;;2.67;;
9815;SDS011;4947;44.526;11.360;2022-09-09T08:26:24;6.22;;;2.83;;
9815;SDS011;4947;44.526;11.360;2022-09-09T08:28:54;4.32;;;1.92;;
9815;SDS011;4947;44.526;11.360;2022-09-09T08:31:23;11.80;;;3.17;;
9815;SDS011;4947;44.526;11.360;2022-09-09T08:33:51;8.75;;;3.17;;
9815;SDS011;4947;44.526;11.360;2022-09-09T08:36:19;6.32;;;2.30;;
9815;SDS011;4947;44.526;11.360;2022-09-09T08:38:50;7.63;;;2.60;;
9815;SDS011;4947;44.526;11.360;2022-09-09T08:41:31;8.93;;;2.70;;
9815;SDS011;4947;44.526;11.360;2022-09-09T08:44:18;8.68;;;2.80;;
9815;SDS011;4947;44.526;11.360;2022-09-09T08:46:52;8.73;;;2.20;;
9815;SDS011;4947;44.526;11.360;2022-09-09T08:52:23;4.88;;;1.75;;
9815;SDS011;4947;44.526;11.360;2022-09-09T08:54:55;10.40;;;3.20;;
9815;SDS011;4947;44.526;11.360;2022-09-09T08:57:29;12.82;;;4.15;;
9815;SDS011;4947;44.526;11.360;2022-09-09T08:59:59;6.95;;;3.60;;
9815;SDS011;4947;44.526;11.360;2022-09-09T09:02:28;9.13;;;3.92;;
9815;SDS011;4947;44.526;11.360;2022-09-09T09:05:07;15.50;;;4.03;;
9815;SDS011;4947;44.526;11.360;2022-09-09T09:07:47;9.60;;;3.22;;
9815;SDS011;4947;44.526;11.360;2022-09-09T09:10:32;8.88;;;2.90;;
9815;SDS011;4947;44.526;11.360;2022-09-09T09:13:10;8.77;;;3.05;;
9815;SDS011;4947;44.526;11.360;2022-09-09T09:15:44;11.88;;;3.78;;
9815;SDS011;4947;44.526;11.360;2022-09-09T09:18:17;9.07;;;4.13;;
9815;SDS011;4947;44.526;11.360;2022-09-09T09:20:47;9.80;;;4.10;;
9815;SDS011;4947;44.526;11.360;2022-09-09T09:23:25;9.52;;;3.17;;
9815;SDS011;4947;44.526;11.360;2022-09-09T09:26:01;8.05;;;2.95;;
9815;SDS011;4947;44.526;11.360;2022-09-09T09:28:33;9.75;;;2.95;;
9815;SDS011;4947;44.526;11.360;2022-09-09T09:31:01;10.90;;;3.00;;
9815;SDS011;4947;44.526;11.360;2022-09-09T09:33:33;5.85;;;3.33;;
9815;SDS011;4947;44.526;11.360;2022-09-09T09:36:05;8.07;;;3.05;;
9815;SDS011;4947;44.526;11.360;2022-09-09T09:38:34;8.48;;;3.33;;
9815;SDS011;4947;44.526;11.360;2022-09-09T09:41:04;5.47;;;2.63;;
9815;SDS011;4947;44.526;11.360;2022-09-09T09:43:32;2.47;;;2.00;;
9815;SDS011;4947;44.526;11.360;2022-09-09T09:46:03;10.23;;;2.20;;
9815;SDS011;4947;44.526;11.360;2022-09-09T09:48:31;4.78;;;2.20;;
9815;SDS011;4947;44.526;11.360;2022-09-09T09:50:59;8.70;;;1.92;;
9815;SDS011;4947;44.526;11.360;2022-09-09T09:53:29;8.43;;;2.22;;
9815;SDS011;4947;44.526;11.360;2022-09-09T09:55:59;7.65;;;3.15;;
9815;SDS011;4947;44.526;11.360;2022-09-09T09:58:31;8.95;;;3.22;;
9815;SDS011;4947;44.526;11.360;2022-09-09T10:01:00;10.07;;;2.67;;
9815;SDS011;4947;44.526;11.360;2022-09-09T10:03:28;5.53;;;2.08;;
9815;SDS011;4947;44.526;11.360;2022-09-09T10:05:56;12.63;;;2.55;;
9815;SDS011;4947;44.526;11.360;2022-09-09T10:08:25;6.40;;;1.92;;
9815;SDS011;4947;44.526;11.360;2022-09-09T10:10:58;11.10;;;2.40;;
9815;SDS011;4947;44.526;11.360;2022-09-09T10:13:36;5.22;;;1.83;;
9815;SDS011;4947;44.526;11.360;2022-09-09T10:16:19;5.90;;;2.10;;
9815;SDS011;4947;44.526;11.360;2022-09-09T10:18:58;6.20;;;1.80;;
9815;SDS011;4947;44.526;11.360;2022-09-09T10:21:31;8.70;;;2.72;;
9815;SDS011;4947;44.526;11.360;2022-09-09T10:24:27;10.00;;;2.90;;
9815;SDS011;4947;44.526;11.360;2022-09-09T10:27:16;3.80;;;1.75;;
9815;SDS011;4947;44.526;11.360;2022-09-09T10:29:53;11.25;;;2.28;;
9815;SDS011;4947;44.526;11.360;2022-09-09T10:32:37;4.32;;;2.10;;
9815;SDS011;4947;44.526;11.360;2022-09-09T10:35:14;6.03;;;2.20;;
9815;SDS011;4947;44.526;11.360;2022-09-09T10:37:53;6.47;;;2.25;;
9815;SDS011;4947;44.526;11.360;2022-09-09T10:40:32;2.95;;;1.80;;
9815;SDS011;4947;44.526;11.360;2022-09-09T10:43:05;5.38;;;2.13;;
9815;SDS011;4947;44.526;11.360;2022-09-09T10:45:43;4.43;;;1.90;;
9815;SDS011;4947;44.526;11.360;2022-09-09T10:48:19;8.70;;;2.15;;
9815;SDS011;4947;44.526;11.360;2022-09-09T10:51:00;10.15;;;3.60;;
9815;SDS011;4947;44.526;11.360;2022-09-09T10:53:42;5.35;;;1.65;;
9815;SDS011;4947;44.526;11.360;2022-09-09T10:56:20;4.40;;;1.63;;
9815;SDS011;4947;44.526;11.360;2022-09-09T10:58:51;8.55;;;1.73;;
9815;SDS011;4947;44.526;11.360;2022-09-09T11:01:25;3.90;;;1.63;;
9815;SDS011;4947;44.526;11.360;2022-09-09T11:04:01;3.45;;;2.00;;
9815;SDS011;4947;44.526;11.360;2022-09-09T11:06:34;6.85;;;1.92;;
9815;SDS011;4947;44.526;11.360;2022-09-09T11:09:05;2.95;;;1.58;;
9815;SDS011;4947;44.526;11.360;2022-09-09T11:11:37;4.93;;;1.70;;
9815;SDS011;4947;44.526;11.360;2022-09-09T11:14:10;3.60;;;1.60;;
9815;SDS011;4947;44.526;11.360;2022-09-09T11:16:45;6.45;;;1.75;;
9815;SDS011;4947;44.526;11.360;2022-09-09T11:19:17;5.15;;;1.77;;
9815;SDS011;4947;44.526;11.360;2022-09-09T11:21:52;3.45;;;1.35;;
9815;SDS011;4947;44.526;11.360;2022-09-09T11:24:25;5.45;;;1.50;;
9815;SDS011;4947;44.526;11.360;2022-09-09T11:26:57;8.23;;;1.55;;
9815;SDS011;4947;44.526;11.360;2022-09-09T11:32:43;5.18;;;1.25;;
9815;SDS011;4947;44.526;11.360;2022-09-09T11:35:26;4.40;;;1.25;;
9815;SDS011;4947;44.526;11.360;2022-09-09T11:38:03;2.17;;;1.10;;
9815;SDS011;4947;44.526;11.360;2022-09-09T11:40:43;10.57;;;1.77;;
9815;SDS011;4947;44.526;11.360;2022-09-09T11:43:12;2.75;;;1.55;;
9815;SDS011;4947;44.526;11.360;2022-09-09T11:45:42;4.32;;;1.02;;
9815;SDS011;4947;44.526;11.360;2022-09-09T11:51:03;5.65;;;1.50;;
9815;SDS011;4947;44.526;11.360;2022-09-09T11:53:33;1.27;;;1.17;;
9815;SDS011;4947;44.526;11.360;2022-09-09T11:58:58;4.43;;;1.45;;
9815;SDS011;4947;44.526;11.360;2022-09-09T12:01:38;3.17;;;1.40;;
9815;SDS011;4947;44.526;11.360;2022-09-09T12:04:13;1.70;;;1.10;;
9815;SDS011;4947;44.526;11.360;2022-09-09T12:06:54;1.85;;;1.08;;
9815;SDS011;4947;44.526;11.360;2022-09-09T12:09:27;3.10;;;1.50;;
9815;SDS011;4947;44.526;11.360;2022-09-09T12:12:05;5.80;;;1.50;;
9815;SDS011;4947;44.526;11.360;2022-09-09T12:14:35;2.40;;;1.25;;
9815;SDS011;4947;44.526;11.360;2022-09-09T12:20:02;5.95;;;1.60;;
9815;SDS011;4947;44.526;11.360;2022-09-09T12:22:37;7.15;;;1.42;;
9815;SDS011;4947;44.526;11.360;2022-09-09T12:25:16;2.50;;;1.33;;
9815;SDS011;4947;44.526;11.360;2022-09-09T12:27:55;5.07;;;1.33;;
9815;SDS011;4947;44.526;11.360;2022-09-09T12:30:31;2.97;;;1.50;;
9815;SDS011;4947;44.526;11.360;2022-09-09T12:33:08;2.55;;;1.60;;
9815;SDS011;4947;44.526;11.360;2022-09-09T12:35:40;3.78;;;1.75;;
9815;SDS011;4947;44.526;11.360;2022-09-09T12:38:12;7.85;;;1.50;;
9815;SDS011;4947;44.526;11.360;2022-09-09T12:40:42;3.58;;;1.92;;
9815;SDS011;4947;44.526;11.360;2022-09-09T12:43:21;4.40;;;1.45;;
9815;SDS011;4947;44.526;11.360;2022-09-09T12:45:50;1.73;;;1.30;;
9815;SDS011;4947;44.526;11.360;2022-09-09T12:48:23;4.68;;;1.52;;
9815;SDS011;4947;44.526;11.360;2022-09-09T12:50:56;3.40;;;1.60;;
9815;SDS011;4947;44.526;11.360;2022-09-09T12:53:25;5.55;;;1.75;;
9815;SDS011;4947;44.526;11.360;2022-09-09T12:55:56;8.15;;;2.15;;
9815;SDS011;4947;44.526;11.360;2022-09-09T12:58:25;5.32;;;1.92;;
9815;SDS011;4947;44.526;11.360;2022-09-09T13:00:57;5.05;;;1.45;;
9815;SDS011;4947;44.526;11.360;2022-09-09T13:03:25;3.85;;;1.60;;
9815;SDS011;4947;44.526;11.360;2022-09-09T13:05:57;6.70;;;1.85;;
9815;SDS011;4947;44.526;11.360;2022-09-09T13:08:37;3.80;;;1.77;;
9815;SDS011;4947;44.526;11.360;2022-09-09T13:11:06;4.50;;;1.80;;
9815;SDS011;4947;44.526;11.360;2022-09-09T13:13:38;4.97;;;1.80;;
9815;SDS011;4947;44.526;11.360;2022-09-09T13:16:15;2.80;;;1.33;;
9815;SDS011;4947;44.526;11.360;2022-09-09T13:18:46;2.92;;;1.50;;
9815;SDS011;4947;44.526;11.360;2022-09-09T13:21:16;5.38;;;1.95;;
9815;SDS011;4947;44.526;11.360;2022-09-09T13:23:47;4.28;;;2.08;;
9815;SDS011;4947;44.526;11.360;2022-09-09T13:26:20;3.33;;;1.83;;
9815;SDS011;4947;44.526;11.360;2022-09-09T13:28:50;4.72;;;1.70;;
9815;SDS011;4947;44.526;11.360;2022-09-09T13:31:21;3.03;;;1.40;;
9815;SDS011;4947;44.526;11.360;2022-09-09T13:33:52;4.35;;;1.70;;
9815;SDS011;4947;44.526;11.360;2022-09-09T13:36:28;3.63;;;1.85;;
9815;SDS011;4947;44.526;11.360;2022-09-09T13:38:58;6.85;;;1.42;;
9815;SDS011;4947;44.526;11.360;2022-09-09T13:41:28;6.32;;;1.90;;
9815;SDS011;4947;44.526;11.360;2022-09-09T13:43:58;4.63;;;1.90;;
9815;SDS011;4947;44.526;11.360;2022-09-09T13:46:30;5.05;;;1.38;;
9815;SDS011;4947;44.526;11.360;2022-09-09T13:49:01;5.10;;;1.50;;
9815;SDS011;4947;44.526;11.360;2022-09-09T13:51:47;4.22;;;2.75;;
9815;SDS011;4947;44.526;11.360;2022-09-09T13:54:19;12.27;;;2.10;;
9815;SDS011;4947;44.526;11.360;2022-09-09T13:56:47;9.45;;;2.40;;
9815;SDS011;4947;44.526;11.360;2022-09-09T13:59:17;5.20;;;2.00;;
9815;SDS011;4947;44.526;11.360;2022-09-09T14:01:46;7.25;;;1.73;;
9815;SDS011;4947;44.526;11.360;2022-09-09T14:04:14;5.55;;;1.90;;
9815;SDS011;4947;44.526;11.360;2022-09-09T14:06:41;14.13;;;1.92;;
9815;SDS011;4947;44.526;11.360;2022-09-09T14:09:12;8.02;;;2.78;;
9815;SDS011;4947;44.526;11.360;2022-09-09T14:11:40;2.85;;;1.55;;
9815;SDS011;4947;44.526;11.360;2022-09-09T14:14:07;4.97;;;2.33;;
9815;SDS011;4947;44.526;11.360;2022-09-09T14:16:35;3.97;;;1.80;;
9815;SDS011;4947;44.526;11.360;2022-09-09T14:19:03;3.47;;;1.95;;
9815;SDS011;4947;44.526;11.360;2022-09-09T14:21:31;5.10;;;1.73;;
9815;SDS011;4947;44.526;11.360;2022-09-09T14:23:59;5.57;;;1.75;;
9815;SDS011;4947;44.526;11.360;2022-09-09T14:26:28;7.97;;;1.92;;
9815;SDS011;4947;44.526;11.360;2022-09-09T14:28:55;4.05;;;1.80;;
9815;SDS011;4947;44.526;11.360;2022-09-09T14:31:22;4.60;;;2.28;;
9815;SDS011;4947;44.526;11.360;2022-09-09T14:33:50;13.50;;;2.15;;
9815;SDS011;4947;44.526;11.360;2022-09-09T14:36:18;5.63;;;2.45;;
9815;SDS011;4947;44.526;11.360;2022-09-09T14:38:46;6.43;;;1.88;;
9815;SDS011;4947;44.526;11.360;2022-09-09T14:41:14;2.20;;;1.63;;
9815;SDS011;4947;44.526;11.360;2022-09-09T14:43:46;2.22;;;1.98;;
9815;SDS011;4947;44.526;11.360;2022-09-09T14:46:14;5.07;;;2.13;;
9815;SDS011;4947;44.526;11.360;2022-09-09T14:48:42;12.60;;;2.05;;
9815;SDS011;4947;44.526;11.360;2022-09-09T14:51:11;8.50;;;1.92;;
9815;SDS011;4947;44.526;11.360;2022-09-09T14:53:41;8.25;;;1.98;;
9815;SDS011;4947;44.526;11.360;2022-09-09T14:56:11;3.75;;;1.83;;
9815;SDS011;4947;44.526;11.360;2022-09-09T14:58:39;4.50;;;1.65;;
9815;SDS011;4947;44.526;11.360;2022-09-09T15:01:09;11.13;;;2.30;;
9815;SDS011;4947;44.526;11.360;2022-09-09T15:03:39;5.15;;;1.92;;
9815;SDS011;4947;44.526;11.360;2022-09-09T15:06:08;3.97;;;1.52;;
9815;SDS011;4947;44.526;11.360;2022-09-09T15:08:38;5.97;;;2.03;;
9815;SDS011;4947;44.526;11.360;2022-09-09T15:11:06;4.25;;;1.52;;
9815;SDS011;4947;44.526;11.360;2022-09-09T15:13:34;4.50;;;1.67;;
9815;SDS011;4947;44.526;11.360;2022-09-09T15:16:04;7.10;;;1.92;;
9815;SDS011;4947;44.526;11.360;2022-09-09T15:18:33;17.23;;;2.38;;
9815;SDS011;4947;44.526;11.360;2022-09-09T15:21:05;5.95;;;1.77;;
9815;SDS011;4947;44.526;11.360;2022-09-09T15:23:34;5.55;;;2.00;;
9815;SDS011;4947;44.526;11.360;2022-09-09T15:26:02;6.90;;;2.25;;
9815;SDS011;4947;44.526;11.360;2022-09-09T15:28:31;7.88;;;2.20;;
9815;SDS011;4947;44.526;11.360;2022-09-09T15:31:04;5.00;;;2.50;;
9815;SDS011;4947;44.526;11.360;2022-09-09T15:33:35;8.93;;;2.90;;
9815;SDS011;4947;44.526;11.360;2022-09-09T15:36:12;7.80;;;2.33;;